createdAt,value
2022-07-31T08:39:04.235Z,14304.00
2022-07-31T08:40:04.220Z,14520.00
2022-07-31T08:41:04.189Z,14416.00
2022-07-31T08:42:04.403Z,14064.00
2022-07-31T08:43:19.354Z,13552.00
2022-07-31T08:44:04.597Z,12864.00
2022-07-31T08:45:04.136Z,12012.00
2022-07-31T09:27:23.688Z,13016.00
2022-07-31T09:28:25.264Z,13428.00
2022-07-31T09:29:23.646Z,13440.00
2022-07-31T09:30:23.630Z,12680.00
2022-07-31T09:31:23.621Z,11744.00
2022-07-31T09:32:23.594Z,11216.00
2022-07-31T09:33:23.589Z,10980.00
2022-07-31T09:34:23.582Z,11300.00
2022-07-31T09:35:23.566Z,11808.00
2022-07-31T09:36:23.541Z,12220.00
2022-07-31T09:37:23.544Z,12040.00
2022-07-31T09:38:23.515Z,12312.00
2022-07-31T09:39:26.939Z,12940.00
2022-07-31T09:40:23.500Z,13616.00
2022-07-31T09:41:56.454Z,14852.00
2022-07-31T09:42:23.472Z,16320.00
2022-07-31T09:43:23.458Z,17664.00
2022-07-31T09:44:25.306Z,19200.00
2022-07-31T09:45:23.434Z,20000.00
2022-07-31T09:46:23.422Z,20672.00
2022-07-31T09:47:23.406Z,21632.00
2022-07-31T09:48:26.212Z,22208.00
2022-07-31T09:49:23.405Z,22880.00
2022-07-31T09:50:23.376Z,23040.00
2022-07-31T09:51:23.359Z,23200.00
2022-07-31T09:52:23.339Z,23040.00
2022-07-31T09:53:23.326Z,22688.00
2022-07-31T09:54:23.320Z,22336.00
2022-07-31T09:55:23.311Z,21824.00
2022-07-31T09:56:23.289Z,21120.00
2022-07-31T09:57:23.276Z,20896.00
2022-07-31T09:58:23.283Z,20992.00
2022-07-31T09:59:23.251Z,20960.00
2022-07-31T10:00:23.252Z,20768.00
2022-07-31T10:01:23.293Z,20448.00
2022-07-31T10:02:23.234Z,20288.00
2022-07-31T10:03:23.204Z,20128.00
2022-07-31T10:04:23.203Z,20704.00
2022-07-31T10:05:23.208Z,20992.00
2022-07-31T10:06:23.181Z,21376.00
2022-07-31T10:07:31.918Z,21856.00
2022-07-31T10:08:23.156Z,22208.00
2022-07-31T10:09:23.145Z,22272.00
2022-07-31T10:10:23.145Z,22144.00
2022-07-31T10:11:23.122Z,22016.00
2022-07-31T10:12:23.111Z,21824.00
2022-07-31T10:13:23.099Z,21600.00
2022-07-31T10:14:23.089Z,21184.00
2022-07-31T10:15:23.079Z,20896.00
2022-07-31T10:16:23.065Z,21376.00
2022-07-31T10:17:23.047Z,21984.00
2022-07-31T10:18:36.105Z,22208.00
2022-07-31T10:19:23.019Z,22592.00
2022-07-31T10:20:23.023Z,23200.00
2022-07-31T10:21:22.999Z,23104.00
2022-07-31T10:22:22.988Z,22496.00
2022-07-31T10:23:22.976Z,22208.00
2022-07-31T10:24:27.921Z,22624.00
2022-07-31T10:25:22.978Z,23168.00
2022-07-31T10:26:34.327Z,23424.00
2022-07-31T10:27:22.930Z,23360.00
2022-07-31T10:28:22.921Z,23552.00
2022-07-31T10:29:22.917Z,23712.00
2022-07-31T10:30:27.363Z,23360.00
2022-07-31T10:31:22.886Z,22816.00
2022-07-31T10:32:22.878Z,21952.00
2022-07-31T10:33:42.903Z,21280.00
2022-07-31T10:34:22.877Z,20448.00
2022-07-31T10:35:22.862Z,19904.00
2022-07-31T10:36:22.838Z,19552.00
2022-07-31T10:37:22.835Z,19616.00
2022-07-31T10:38:22.824Z,19840.00
2022-07-31T10:39:22.800Z,19776.00
2022-07-31T10:40:22.812Z,20128.00
2022-07-31T10:41:22.786Z,20256.00
2022-07-31T10:42:22.776Z,20288.00
2022-07-31T10:43:22.757Z,20128.00
2022-07-31T10:44:22.758Z,19616.00
2022-07-31T10:45:22.764Z,18688.00
2022-07-31T10:46:22.740Z,17600.00
2022-07-31T10:47:22.742Z,16512.00
2022-07-31T10:48:22.739Z,15736.00
2022-07-31T10:49:22.760Z,15264.00
2022-07-31T10:50:22.699Z,14932.00
2022-07-31T10:51:22.681Z,15268.00
2022-07-31T10:52:22.678Z,15872.00
2022-07-31T10:53:49.948Z,16800.00
2022-07-31T10:54:22.654Z,17632.00
2022-07-31T10:55:22.646Z,18848.00
2022-07-31T10:56:22.619Z,20480.00
2022-07-31T10:57:22.630Z,22016.00
2022-07-31T10:58:22.609Z,22880.00
2022-07-31T10:59:22.602Z,23040.00
2022-07-31T11:00:22.602Z,22816.00
2022-07-31T11:01:22.616Z,22336.00
2022-07-31T11:02:22.567Z,21920.00
2022-07-31T11:03:22.556Z,21440.00
2022-07-31T11:04:22.548Z,20992.00
2022-07-31T11:05:22.566Z,20416.00
2022-07-31T11:06:22.525Z,19680.00
2022-07-31T11:07:22.513Z,18976.00
2022-07-31T11:08:22.505Z,18592.00
2022-07-31T11:09:22.493Z,18240.00
2022-07-31T11:10:22.509Z,17920.00
2022-07-31T11:11:25.984Z,17536.00
2022-07-31T11:12:22.449Z,17184.00
2022-07-31T11:13:22.442Z,16768.00
2022-07-31T11:14:22.438Z,15832.00
2022-07-31T11:15:22.437Z,14416.00
2022-07-31T11:16:22.415Z,13104.00
2022-07-31T11:18:20.938Z,12316.00
2022-07-31T11:18:27.406Z,11652.00
2022-07-31T11:19:22.382Z,11512.00
2022-07-31T11:20:22.397Z,11344.00
2022-07-31T11:21:38.056Z,10568.00
2022-07-31T11:22:31.788Z,9848.00
2022-07-31T11:23:22.335Z,9372.00
2022-07-31T11:24:22.365Z,9524.00
2022-07-31T11:25:22.328Z,9896.00
2022-07-31T11:26:33.421Z,10268.00
2022-07-31T11:27:22.294Z,10220.00
2022-07-31T11:28:22.277Z,10672.00
2022-07-31T11:30:01.486Z,12608.00
2022-07-31T11:30:22.276Z,14624.00
2022-07-31T11:31:22.249Z,16832.00
2022-07-31T11:32:22.972Z,18912.00
2022-07-31T11:33:22.217Z,20736.00
2022-07-31T11:34:22.215Z,21696.00
2022-07-31T11:35:22.215Z,21440.00
2022-07-31T11:36:22.190Z,20672.00
2022-07-31T11:37:22.168Z,19520.00
2022-07-31T11:38:22.160Z,18560.00
2022-07-31T11:39:28.876Z,17184.00
2022-07-31T11:40:27.345Z,15816.00
2022-07-31T11:41:22.918Z,15636.00
2022-07-31T11:42:26.398Z,14244.00
2022-07-31T11:43:26.156Z,14696.00
2022-07-31T11:44:22.105Z,14616.00
2022-07-31T11:45:22.095Z,15116.00
2022-07-31T11:46:22.151Z,15604.00
2022-07-31T11:48:10.151Z,16992.00
2022-07-31T11:48:22.052Z,17600.00
2022-07-31T11:49:22.137Z,16800.00
2022-07-31T11:50:22.058Z,17536.00
2022-07-31T11:51:22.018Z,19648.00
2022-07-31T11:52:31.101Z,20416.00
2022-07-31T11:53:21.999Z,23104.00
2022-07-31T11:54:21.995Z,23648.00
2022-07-31T11:55:21.999Z,23616.00
2022-07-31T11:56:21.975Z,24224.00
2022-07-31T11:57:21.957Z,23712.00
2022-07-31T11:58:21.958Z,23264.00
2022-07-31T11:59:45.203Z,23104.00
2022-07-31T12:00:26.811Z,24576.00
2022-07-31T12:01:21.917Z,24384.00
2022-07-31T12:02:21.957Z,24608.00
2022-07-31T12:03:21.927Z,25280.00
2022-07-31T12:04:21.887Z,25952.00
2022-07-31T12:05:36.186Z,26496.00
2022-07-31T12:06:21.886Z,25952.00
2022-07-31T12:07:21.869Z,25376.00
2022-07-31T12:08:21.848Z,24224.00
2022-07-31T12:10:02.555Z,23872.00
2022-07-31T12:10:21.849Z,23584.00
2022-07-31T12:11:21.821Z,23392.00
2022-07-31T12:12:21.802Z,23328.00
2022-07-31T12:13:21.799Z,24512.00
2022-07-31T12:14:21.797Z,24992.00
2022-07-31T12:15:21.802Z,25120.00
2022-07-31T12:16:21.775Z,24768.00
2022-07-31T12:17:21.759Z,24576.00
2022-07-31T12:18:21.746Z,24448.00
2022-07-31T12:19:21.748Z,23968.00
2022-07-31T12:20:34.861Z,22976.00
2022-07-31T12:21:21.731Z,21824.00
2022-07-31T12:22:21.721Z,20448.00
2022-07-31T12:23:40.766Z,20992.00
2022-07-31T12:24:21.688Z,21504.00
2022-07-31T12:25:21.694Z,21632.00
2022-07-31T12:26:21.691Z,22944.00
2022-07-31T12:27:21.661Z,22816.00
2022-07-31T12:28:21.651Z,23520.00
2022-07-31T12:29:21.640Z,23520.00
2022-07-31T12:30:21.641Z,22912.00
2022-07-31T12:31:21.646Z,22048.00
2022-07-31T12:32:21.623Z,20864.00
2022-07-31T12:33:21.613Z,19776.00
2022-07-31T12:34:21.594Z,19584.00
2022-07-31T12:35:21.586Z,18592.00
2022-07-31T12:36:21.585Z,16580.00
2022-07-31T12:37:21.567Z,16332.00
2022-07-31T12:38:38.219Z,16152.00
2022-07-31T12:39:21.548Z,14200.00
2022-07-31T12:40:21.547Z,13188.00
2022-07-31T12:41:21.540Z,11888.00
2022-07-31T12:42:21.529Z,11900.00
2022-07-31T12:43:21.520Z,13532.00
2022-07-31T12:44:22.194Z,14116.00
2022-07-31T12:45:21.494Z,14432.00
2022-07-31T12:46:21.493Z,14660.00
2022-07-31T12:47:21.472Z,13140.00
2022-07-31T12:48:21.461Z,12372.00
2022-07-31T12:49:21.486Z,14100.00
2022-07-31T12:50:21.483Z,17696.00
2022-07-31T12:51:44.300Z,19456.00
2022-07-31T12:52:21.434Z,20128.00
2022-07-31T12:53:21.424Z,20896.00
2022-07-31T12:54:21.416Z,19712.00
2022-07-31T12:55:21.404Z,18688.00
2022-07-31T12:56:21.406Z,18976.00
2022-07-31T12:57:21.378Z,18816.00
2022-07-31T12:58:21.375Z,17888.00
2022-07-31T12:59:21.367Z,19008.00
2022-07-31T13:00:21.351Z,19200.00
2022-07-31T13:01:21.387Z,20544.00
2022-07-31T13:02:21.330Z,22464.00
2022-07-31T13:03:21.320Z,23104.00
2022-07-31T13:04:21.310Z,24192.00
2022-07-31T13:05:21.315Z,24448.00
2022-07-31T13:06:21.315Z,25280.00
2022-07-31T13:07:21.286Z,25952.00
2022-07-31T13:08:21.284Z,25760.00
2022-07-31T13:09:21.293Z,25408.00
2022-07-31T13:10:24.826Z,26272.00
2022-07-31T13:11:21.264Z,28192.00
2022-07-31T13:12:21.260Z,27136.00
2022-07-31T13:13:21.235Z,27296.00
2022-07-31T13:14:21.225Z,26784.00
2022-07-31T13:15:21.226Z,25568.00
2022-07-31T13:16:21.229Z,23808.00
2022-07-31T13:17:21.212Z,22720.00
2022-07-31T13:18:21.189Z,22752.00
2022-07-31T13:19:21.183Z,22784.00
2022-07-31T13:20:21.183Z,23488.00
2022-07-31T13:21:21.187Z,22976.00
2022-07-31T13:22:21.158Z,21664.00
2022-07-31T13:23:21.160Z,22880.00
2022-07-31T13:24:21.144Z,23584.00
2022-07-31T13:25:21.142Z,28160.00
2022-07-31T13:26:21.136Z,32864.00
2022-07-31T13:27:21.125Z,26848.00
2022-07-31T13:28:21.116Z,23904.00
2022-07-31T13:29:21.101Z,45312.00
2022-07-31T13:30:21.093Z,36576.00
2022-07-31T13:31:21.102Z,52832.00
2022-07-31T13:32:21.077Z,41984.00
2022-07-31T13:33:21.068Z,39296.00
2022-07-31T13:34:21.069Z,44064.00
2022-07-31T13:35:27.834Z,67968.00
2022-07-31T13:36:21.057Z,62816.00
2022-07-31T13:37:21.048Z,72896.00
2022-07-31T13:38:21.029Z,60960.00
2022-07-31T13:39:21.020Z,63552.00
2022-07-31T13:40:21.014Z,67904.00
2022-07-31T13:41:21.030Z,24864.00
2022-07-31T13:42:20.999Z,24032.00
2022-07-31T13:43:20.998Z,18336.00
2022-07-31T13:44:20.990Z,29056.00
2022-07-31T13:45:20.984Z,24128.00
2022-07-31T13:46:20.978Z,54848.00
2022-07-31T13:47:20.965Z,79328.00
2022-07-31T13:48:20.949Z,60416.00
2022-07-31T13:49:20.982Z,88736.00
2022-07-31T13:50:20.943Z,89664.00
2022-07-31T13:51:23.952Z,92544.00
2022-07-31T13:52:20.919Z,68864.00
2022-07-31T13:53:20.912Z,92416.00
2022-07-31T13:54:20.913Z,90848.00
2022-07-31T13:55:20.898Z,82304.00
2022-07-31T13:56:37.502Z,39808.00
2022-07-31T13:57:20.892Z,53536.00
2022-07-31T13:58:20.876Z,44416.00
2022-07-31T13:59:20.879Z,49536.00
2022-07-31T14:00:20.860Z,61984.00
2022-07-31T14:01:20.888Z,32448.00
2022-07-31T14:02:21.227Z,49472.00
2022-07-31T14:03:21.148Z,26976.00
2022-07-31T14:04:23.610Z,17504.00
2022-07-31T14:05:20.834Z,17280.00
2022-07-31T14:06:20.830Z,73600.00
2022-07-31T14:07:20.823Z,46688.00
2022-07-31T14:08:33.362Z,77856.00
2022-07-31T14:09:20.799Z,80192.00
2022-07-31T14:10:21.158Z,19808.00
2022-07-31T14:11:20.802Z,20672.00
2022-07-31T14:12:20.785Z,75808.00
2022-07-31T14:13:20.778Z,57728.00
2022-07-31T14:14:23.001Z,63744.00
2022-07-31T14:15:20.761Z,23232.00
2022-07-31T14:16:20.755Z,20608.00
2022-07-31T14:17:20.746Z,21184.00
2022-07-31T14:18:20.728Z,33152.00
2022-07-31T14:19:20.730Z,48544.00
2022-07-31T14:20:20.712Z,83456.00
2022-07-31T14:21:20.727Z,28928.00
2022-07-31T14:22:20.703Z,24864.00
2022-07-31T14:23:20.703Z,22368.00
2022-07-31T14:24:20.682Z,19872.00
2022-07-31T14:25:20.688Z,19712.00
2022-07-31T14:26:20.683Z,21280.00
2022-07-31T14:27:20.671Z,24416.00
2022-07-31T14:28:20.660Z,72256.00
2022-07-31T14:29:20.644Z,86944.00
2022-07-31T14:30:20.645Z,28384.00
2022-07-31T14:31:20.659Z,26560.00
2022-07-31T14:32:20.625Z,81248.00
2022-07-31T14:33:20.614Z,46528.00
2022-07-31T14:34:20.613Z,47552.00
2022-07-31T14:35:20.606Z,24448.00
2022-07-31T14:36:20.607Z,24992.00
2022-07-31T14:37:20.741Z,36096.00
2022-07-31T14:38:26.952Z,36480.00
2022-07-31T14:39:20.578Z,33248.00
2022-07-31T14:40:20.555Z,33408.00
2022-07-31T14:41:20.561Z,28000.00
2022-07-31T14:42:22.328Z,22176.00
2022-07-31T14:43:20.544Z,20032.00
2022-07-31T14:44:21.440Z,22656.00
2022-07-31T14:45:20.516Z,33248.00
2022-07-31T14:46:20.526Z,54016.00
2022-07-31T14:47:20.502Z,45216.00
2022-07-31T14:48:20.491Z,25216.00
2022-07-31T14:49:20.542Z,23840.00
2022-07-31T14:50:20.583Z,24256.00
2022-07-31T14:51:20.478Z,24512.00
2022-07-31T14:52:20.472Z,25248.00
2022-07-31T14:53:20.448Z,39680.00
2022-07-31T14:54:20.454Z,32256.00
2022-07-31T14:55:20.432Z,44672.00
2022-07-31T14:56:34.699Z,24480.00
2022-07-31T14:57:22.492Z,21824.00
2022-07-31T14:58:20.414Z,19584.00
2022-07-31T14:59:20.411Z,18208.00
2022-07-31T15:00:20.389Z,18752.00
2022-07-31T15:01:20.424Z,22336.00
2022-07-31T15:02:22.697Z,54944.00
2022-07-31T15:03:20.374Z,71712.00
2022-07-31T15:04:20.356Z,90336.00
2022-07-31T15:06:48.788Z,76832.00
2022-07-31T15:06:49.341Z,89792.00
2022-07-31T15:07:38.525Z,76704.00
2022-07-31T15:08:20.332Z,38144.00
2022-07-31T15:09:20.315Z,51040.00
2022-07-31T15:10:20.314Z,23264.00
2022-07-31T15:11:20.321Z,18400.00
2022-07-31T15:16:27.606Z,18944.00
2022-07-31T15:17:27.586Z,21408.00
2022-07-31T15:18:27.570Z,21152.00
2022-07-31T15:19:27.566Z,22464.00
2022-07-31T15:20:28.844Z,36416.00
2022-07-31T15:21:27.553Z,51904.00
2022-07-31T15:22:27.590Z,74560.00
2022-07-31T15:23:27.531Z,35328.00
2022-07-31T15:24:27.515Z,73248.00
2022-07-31T15:25:27.510Z,37024.00
2022-07-31T15:26:27.523Z,29568.00
2022-07-31T15:27:27.500Z,63392.00
2022-07-31T15:28:27.492Z,79232.00
2022-07-31T15:30:05.764Z,73600.00
2022-07-31T15:30:27.469Z,72640.00
2022-07-31T15:31:27.480Z,77632.00
2022-07-31T15:32:27.511Z,71232.00
2022-07-31T15:33:27.443Z,70080.00
2022-07-31T15:34:27.454Z,70240.00
2022-07-31T15:35:27.437Z,70720.00
2022-07-31T15:36:27.452Z,36768.00
2022-07-31T15:37:27.428Z,59360.00
2022-07-31T15:38:27.411Z,67392.00
2022-07-31T15:39:27.412Z,20256.00
2022-07-31T15:40:27.408Z,65984.00
2022-07-31T15:41:27.403Z,44384.00
2022-07-31T15:42:27.387Z,33472.00
2022-07-31T15:48:10.034Z,33024.00
2022-07-31T15:49:07.882Z,24320.00
2022-07-31T15:50:07.818Z,21760.00
2022-07-31T15:51:07.812Z,37824.00
2022-07-31T15:52:15.235Z,21344.00
2022-07-31T15:53:07.793Z,19072.00
2022-07-31T15:54:07.789Z,66560.00
2022-07-31T15:55:07.777Z,64800.00
2022-07-31T15:56:07.779Z,64256.00
2022-07-31T15:57:07.812Z,25152.00
2022-07-31T15:58:07.742Z,44000.00
2022-07-31T15:59:07.733Z,23520.00
2022-07-31T16:08:55.263Z,35488.00
2022-07-31T16:10:03.534Z,45920.00
2022-07-31T16:10:55.336Z,16288.00
2022-07-31T16:23:03.281Z,17824.00
2022-07-31T16:47:14.098Z,18144.00
2022-07-31T16:48:14.070Z,37280.00
2022-07-31T16:49:36.223Z,41984.00
